createdAt,value
2019-05-01T00:00:47.541Z,21.58
2019-05-01T00:01:47.580Z,21.57
2019-05-01T00:02:47.552Z,21.58
2019-05-01T00:03:47.545Z,21.55
2019-05-01T00:04:47.525Z,21.50
2019-05-01T00:05:47.845Z,21.50
2019-05-01T00:06:47.734Z,21.55
2019-05-01T00:07:47.539Z,21.57
2019-05-01T00:08:47.375Z,21.51
2019-05-01T00:09:47.808Z,21.54
2019-05-01T00:10:47.505Z,21.52
2019-05-01T00:11:47.531Z,21.58
2019-05-01T00:12:47.485Z,21.48
2019-05-01T00:13:47.395Z,21.50
2019-05-01T00:14:48.046Z,21.40
2019-05-01T00:15:47.590Z,21.52
2019-05-01T00:16:48.208Z,21.54
2019-05-01T00:17:47.587Z,21.48
2019-05-01T00:18:47.971Z,21.46
2019-05-01T00:19:47.369Z,21.50
2019-05-01T00:20:47.325Z,21.48
2019-05-01T00:21:47.982Z,21.54
2019-05-01T00:22:47.315Z,21.46
2019-05-01T00:23:47.310Z,21.48
2019-05-01T00:24:47.249Z,21.48
2019-05-01T00:25:48.265Z,21.45
2019-05-01T00:26:47.315Z,21.48
2019-05-01T00:27:47.462Z,21.45
2019-05-01T00:28:48.903Z,21.54
2019-05-01T00:29:47.300Z,21.50
2019-05-01T00:30:47.617Z,21.52
2019-05-01T00:31:47.216Z,21.51
2019-05-01T00:32:47.752Z,21.51
2019-05-01T00:33:48.039Z,21.50
2019-05-01T00:34:47.204Z,21.51
2019-05-01T00:35:47.331Z,21.45
2019-05-01T00:36:47.156Z,21.46
2019-05-01T00:37:47.218Z,21.50
2019-05-01T00:38:47.551Z,21.48
2019-05-01T00:39:47.357Z,21.46
2019-05-01T00:40:47.821Z,21.42
2019-05-01T00:41:47.177Z,21.48
2019-05-01T00:42:47.361Z,21.42
2019-05-01T00:43:47.163Z,21.48
2019-05-01T00:44:47.143Z,21.52
2019-05-01T00:45:47.645Z,21.55
2019-05-01T00:46:47.050Z,21.46
2019-05-01T00:47:47.113Z,21.51
2019-05-01T00:48:47.752Z,21.54
2019-05-01T00:49:47.444Z,21.48
2019-05-01T00:50:47.080Z,21.52
2019-05-01T00:51:47.988Z,21.48
2019-05-01T00:52:46.983Z,21.54
2019-05-01T00:53:46.979Z,21.55
2019-05-01T00:54:48.757Z,21.54
2019-05-01T00:55:46.981Z,21.50
2019-05-01T00:56:46.904Z,21.46
2019-05-01T00:57:46.959Z,21.50
2019-05-01T00:58:47.745Z,21.43
2019-05-01T00:59:47.249Z,21.45
2019-05-01T01:00:47.050Z,21.45
2019-05-01T01:01:47.083Z,21.48
2019-05-01T01:02:46.890Z,21.54
2019-05-01T01:03:47.662Z,21.48
2019-05-01T01:04:47.479Z,21.52
2019-05-01T01:05:47.303Z,21.54
2019-05-01T01:06:47.504Z,21.45
2019-05-01T01:07:46.870Z,21.45
2019-05-01T01:08:46.844Z,21.52
2019-05-01T01:09:47.766Z,21.46
2019-05-01T01:10:47.921Z,21.46
2019-05-01T01:11:46.759Z,21.50
2019-05-01T01:12:46.690Z,21.46
2019-05-01T01:13:46.739Z,21.50
2019-05-01T01:14:47.062Z,21.45
2019-05-01T01:15:47.016Z,21.50
2019-05-01T01:16:46.674Z,21.48
2019-05-01T01:17:46.798Z,21.51
2019-05-01T01:18:47.606Z,21.48
2019-05-01T01:19:46.960Z,21.46
2019-05-01T01:20:46.688Z,21.46
2019-05-01T01:21:46.827Z,21.50
2019-05-01T01:22:46.692Z,21.50
2019-05-01T01:23:46.807Z,21.43
2019-05-01T01:24:46.645Z,21.50
2019-05-01T01:25:46.689Z,21.42
2019-05-01T01:26:46.600Z,21.48
2019-05-01T01:27:47.811Z,21.45
2019-05-01T01:28:46.589Z,21.46
2019-05-01T01:29:46.573Z,21.45
2019-05-01T01:30:56.211Z,21.48
2019-05-01T01:31:47.874Z,21.48
2019-05-01T01:32:46.543Z,21.42
2019-05-01T01:33:46.985Z,21.48
2019-05-01T01:34:46.552Z,21.46
2019-05-01T01:35:46.521Z,21.45
2019-05-01T01:36:46.534Z,21.43
2019-05-01T01:37:46.476Z,21.50
2019-05-01T01:38:46.494Z,21.50
2019-05-01T01:39:47.261Z,21.42
2019-05-01T01:40:47.110Z,21.46
2019-05-01T01:41:46.482Z,21.46
2019-05-01T01:42:47.553Z,21.46
2019-05-01T01:43:46.418Z,21.42
2019-05-01T01:44:47.397Z,21.43
2019-05-01T01:45:46.618Z,21.45
2019-05-01T01:46:46.418Z,21.50
2019-05-01T01:47:46.435Z,21.42
2019-05-01T01:48:46.309Z,21.43
2019-05-01T01:49:47.606Z,21.43
2019-05-01T01:50:47.343Z,21.45
2019-05-01T01:51:47.882Z,21.43
2019-05-01T01:52:46.332Z,21.42
2019-05-01T01:53:46.324Z,21.46
2019-05-01T01:54:46.343Z,21.45
2019-05-01T01:55:46.833Z,21.42
2019-05-01T01:56:46.299Z,21.46
2019-05-01T01:57:46.798Z,21.46
2019-05-01T01:58:46.266Z,21.48
2019-05-01T01:59:46.753Z,21.43
2019-05-01T02:00:46.817Z,21.40
2019-05-01T02:01:46.940Z,21.48
2019-05-01T02:02:46.211Z,21.42
2019-05-01T02:03:46.808Z,21.42
2019-05-01T02:04:46.196Z,21.46
2019-05-01T02:05:46.459Z,21.50
2019-05-01T02:06:46.183Z,21.43
2019-05-01T02:07:46.474Z,21.45
2019-05-01T02:08:56.028Z,21.42
2019-05-01T02:09:47.754Z,21.43
2019-05-01T02:10:46.166Z,21.40
2019-05-01T02:11:46.282Z,21.45
2019-05-01T02:12:46.167Z,21.45
2019-05-01T02:13:46.091Z,21.42
2019-05-01T02:14:46.036Z,21.39
2019-05-01T02:15:46.186Z,21.40
2019-05-01T02:16:46.148Z,21.40
2019-05-01T02:17:46.049Z,21.43
2019-05-01T02:18:46.047Z,21.46
2019-05-01T02:19:46.564Z,21.42
2019-05-01T02:20:46.050Z,21.46
2019-05-01T02:21:46.216Z,21.43
2019-05-01T02:22:45.986Z,21.42
2019-05-01T02:23:46.760Z,21.50
2019-05-01T02:24:46.001Z,21.43
2019-05-01T02:25:46.516Z,21.43
2019-05-01T02:26:45.906Z,21.42
2019-05-01T02:27:46.503Z,21.43
2019-05-01T02:28:45.931Z,21.40
2019-05-01T02:29:46.582Z,21.42
2019-05-01T02:30:45.865Z,21.40
2019-05-01T02:31:45.964Z,21.46
2019-05-01T02:32:45.844Z,21.42
2019-05-01T02:33:46.109Z,21.50
2019-05-01T02:34:46.561Z,21.42
2019-05-01T02:35:46.364Z,21.37
2019-05-01T02:36:45.787Z,21.46
2019-05-01T02:37:46.526Z,21.36
2019-05-01T02:38:45.832Z,21.39
2019-05-01T02:39:46.518Z,21.42
2019-05-01T02:40:46.036Z,21.43
2019-05-01T02:41:46.328Z,21.36
2019-05-01T02:42:45.807Z,21.42
2019-05-01T02:43:46.161Z,21.43
2019-05-01T02:44:45.783Z,21.46
2019-05-01T02:45:46.294Z,21.36
2019-05-01T02:46:45.993Z,21.45
2019-05-01T02:47:46.499Z,21.48
2019-05-01T02:48:46.820Z,21.46
2019-05-01T02:49:45.758Z,21.43
2019-05-01T02:50:45.774Z,21.46
2019-05-01T02:51:46.590Z,21.46
2019-05-01T02:52:45.835Z,21.42
2019-05-01T02:53:45.658Z,21.37
2019-05-01T02:54:45.678Z,21.43
2019-05-01T02:55:45.593Z,21.43
2019-05-01T02:56:45.629Z,21.40
2019-05-01T02:57:46.544Z,21.37
2019-05-01T02:58:45.638Z,21.35
2019-05-01T02:59:45.590Z,21.42
2019-05-01T03:00:45.615Z,21.36
2019-05-01T03:01:47.939Z,21.42
2019-05-01T03:02:45.583Z,21.42
2019-05-01T03:03:45.741Z,21.42
2019-05-01T03:04:45.752Z,21.39
2019-05-01T03:05:45.536Z,21.40
2019-05-01T03:06:45.985Z,21.36
2019-05-01T03:07:47.327Z,21.39
2019-05-01T03:08:45.500Z,21.43
2019-05-01T03:09:46.106Z,21.40
2019-05-01T03:10:45.474Z,21.42
2019-05-01T03:11:45.462Z,21.36
2019-05-01T03:12:46.055Z,21.42
2019-05-01T03:13:45.456Z,21.42
2019-05-01T03:14:45.407Z,21.40
2019-05-01T03:15:45.604Z,21.37
2019-05-01T03:16:45.810Z,21.50
2019-05-01T03:17:45.508Z,21.42
2019-05-01T03:18:45.431Z,21.42
2019-05-01T03:19:47.045Z,21.37
2019-05-01T03:20:45.798Z,21.36
2019-05-01T03:21:45.519Z,21.39
2019-05-01T03:22:45.425Z,21.40
2019-05-01T03:23:46.267Z,21.40
2019-05-01T03:24:45.627Z,21.37
2019-05-01T03:25:45.276Z,21.43
2019-05-01T03:26:46.382Z,21.37
2019-05-01T03:27:45.869Z,21.36
2019-05-01T03:28:46.152Z,21.37
2019-05-01T03:29:45.247Z,21.35
2019-05-01T03:30:45.206Z,21.36
2019-05-01T03:32:12.950Z,21.35
2019-05-01T03:32:46.903Z,21.37
2019-05-01T03:33:45.537Z,21.39
2019-05-01T03:34:51.934Z,21.42
2019-05-01T03:35:46.255Z,21.36
2019-05-01T03:36:45.152Z,21.35
2019-05-01T03:37:45.793Z,21.42
2019-05-01T03:38:46.721Z,21.45
2019-05-01T03:39:45.213Z,21.35
2019-05-01T03:40:45.246Z,21.35
2019-05-01T03:41:45.166Z,21.36
2019-05-01T03:42:45.175Z,21.35
2019-05-01T03:43:45.704Z,21.42
2019-05-01T03:44:46.094Z,21.37
2019-05-01T03:45:45.063Z,21.35
2019-05-01T03:46:46.452Z,21.45
2019-05-01T03:47:45.826Z,21.40
2019-05-01T03:48:44.998Z,21.39
2019-05-01T03:49:45.076Z,21.39
2019-05-01T03:50:47.121Z,21.37
2019-05-01T03:51:45.100Z,21.33
2019-05-01T03:52:45.025Z,21.36
2019-05-01T03:53:45.765Z,21.35
2019-05-01T03:54:44.875Z,21.40
2019-05-01T03:55:45.187Z,21.39
2019-05-01T03:56:45.587Z,21.42
2019-05-01T03:57:44.974Z,21.36
2019-05-01T03:58:45.002Z,21.42
2019-05-01T03:59:44.910Z,21.43
2019-05-01T04:00:45.405Z,21.40
2019-05-01T04:01:45.215Z,21.40
2019-05-01T04:02:45.119Z,21.33
2019-05-01T04:03:44.819Z,21.35
2019-05-01T04:04:45.253Z,21.39
2019-05-01T04:05:45.255Z,21.35
2019-05-01T04:06:44.837Z,21.36
2019-05-01T04:07:45.497Z,21.35
2019-05-01T04:08:45.049Z,21.35
2019-05-01T04:09:45.453Z,21.39
2019-05-01T04:10:44.772Z,21.42
2019-05-01T04:11:45.318Z,21.35
2019-05-01T04:12:44.793Z,21.35
2019-05-01T04:13:44.808Z,21.33
2019-05-01T04:14:45.062Z,21.35
2019-05-01T04:15:45.623Z,21.40
2019-05-01T04:16:45.757Z,21.35
2019-05-01T04:17:44.695Z,21.35
2019-05-01T04:18:44.696Z,21.37
2019-05-01T04:19:44.657Z,21.35
2019-05-01T04:20:45.547Z,21.36
2019-05-01T04:21:44.737Z,21.40
2019-05-01T04:22:45.355Z,21.40
2019-05-01T04:23:44.951Z,21.32
2019-05-01T04:24:44.665Z,21.35
2019-05-01T04:25:44.655Z,21.39
2019-05-01T04:26:45.472Z,21.39
2019-05-01T04:27:44.600Z,21.32
2019-05-01T04:28:44.646Z,21.33
2019-05-01T04:29:44.583Z,21.32
2019-05-01T04:30:45.041Z,21.36
2019-05-01T04:31:44.530Z,21.37
2019-05-01T04:32:52.865Z,21.35
2019-05-01T04:33:46.351Z,21.33
2019-05-01T04:34:44.751Z,21.35
2019-05-01T04:35:44.538Z,21.42
2019-05-01T04:36:44.517Z,21.33
2019-05-01T04:37:44.513Z,21.33
2019-05-01T04:38:45.455Z,21.42
2019-05-01T04:39:44.487Z,21.36
2019-05-01T04:40:44.453Z,21.37
2019-05-01T04:41:44.865Z,21.39
2019-05-01T04:42:44.718Z,21.35
2019-05-01T04:43:44.451Z,21.35
2019-05-01T04:44:44.644Z,21.36
2019-05-01T04:45:44.715Z,21.35
2019-05-01T04:46:44.429Z,21.32
2019-05-01T04:47:44.374Z,21.40
2019-05-01T04:48:44.418Z,21.35
2019-05-01T04:49:44.418Z,21.33
2019-05-01T04:50:45.079Z,21.40
2019-05-01T04:51:45.104Z,21.30
2019-05-01T04:52:44.342Z,21.33
2019-05-01T04:53:44.861Z,21.35
2019-05-01T04:54:44.256Z,21.35
2019-05-01T04:55:45.574Z,21.33
2019-05-01T04:56:44.417Z,21.32
2019-05-01T04:57:44.856Z,21.42
2019-05-01T04:58:45.509Z,21.36
2019-05-01T04:59:44.302Z,21.40
2019-05-01T05:00:44.188Z,21.35
2019-05-01T05:01:44.775Z,21.36
2019-05-01T05:02:45.049Z,21.32
2019-05-01T05:03:44.199Z,21.33
2019-05-01T05:04:44.562Z,21.32
2019-05-01T05:05:45.055Z,21.39
2019-05-01T05:06:44.145Z,21.39
2019-05-01T05:07:44.130Z,21.37
2019-05-01T05:08:44.907Z,21.39
2019-05-01T05:09:44.145Z,21.39
2019-05-01T05:10:44.384Z,21.40
2019-05-01T05:11:44.105Z,21.37
2019-05-01T05:12:44.065Z,21.29
2019-05-01T05:13:46.878Z,21.35
2019-05-01T05:14:44.273Z,21.32
2019-05-01T05:15:44.112Z,21.30
2019-05-01T05:16:44.039Z,21.39
2019-05-01T05:17:44.065Z,21.36
2019-05-01T05:18:44.069Z,21.36
2019-05-01T05:19:45.208Z,21.36
2019-05-01T05:20:44.441Z,21.35
2019-05-01T05:21:43.989Z,21.35
2019-05-01T05:22:44.037Z,21.35
2019-05-01T05:23:44.862Z,21.39
2019-05-01T05:24:43.994Z,21.42
2019-05-01T05:25:44.534Z,21.29
2019-05-01T05:26:44.163Z,21.36
2019-05-01T05:27:44.307Z,21.32
2019-05-01T05:28:44.227Z,21.36
2019-05-01T05:29:44.072Z,21.29
2019-05-01T05:30:44.259Z,21.35
2019-05-01T05:31:44.713Z,21.36
2019-05-01T05:32:44.994Z,21.35
2019-05-01T05:33:44.537Z,21.33
2019-05-01T05:34:43.898Z,21.39
2019-05-01T05:35:43.852Z,21.30
2019-05-01T05:36:43.873Z,21.39
2019-05-01T05:37:44.231Z,21.42
2019-05-01T05:38:45.138Z,21.33
2019-05-01T05:39:45.861Z,21.30
2019-05-01T05:40:43.899Z,21.29
2019-05-01T05:41:44.150Z,21.35
2019-05-01T05:42:44.003Z,21.39
2019-05-01T05:43:43.755Z,21.29
2019-05-01T05:44:45.059Z,21.33
2019-05-01T05:45:44.039Z,21.33
2019-05-01T05:46:44.267Z,21.37
2019-05-01T05:47:43.746Z,21.32
2019-05-01T05:48:43.776Z,21.33
2019-05-01T05:49:43.880Z,21.32
2019-05-01T05:50:44.376Z,21.32
2019-05-01T05:51:44.014Z,21.35
2019-05-01T05:52:44.455Z,21.32
2019-05-01T05:53:43.665Z,21.36
2019-05-01T05:54:43.655Z,21.32
2019-05-01T05:55:43.668Z,21.32
2019-05-01T05:56:44.343Z,21.36
2019-05-01T05:57:43.629Z,21.33
2019-05-01T05:58:43.634Z,21.29
2019-05-01T05:59:43.562Z,21.33
2019-05-01T06:00:43.586Z,21.36
2019-05-01T06:01:43.552Z,21.33
2019-05-01T06:02:44.224Z,21.29
2019-05-01T06:03:43.446Z,21.33
2019-05-01T06:04:43.540Z,21.32
2019-05-01T06:05:43.563Z,21.30
2019-05-01T06:06:43.442Z,21.33
2019-05-01T06:07:44.491Z,21.40
2019-05-01T06:08:43.755Z,21.36
2019-05-01T06:09:48.143Z,21.33
2019-05-01T06:10:43.495Z,21.30
2019-05-01T06:11:43.468Z,21.45
2019-05-01T06:12:46.779Z,21.37
2019-05-01T06:13:43.402Z,21.39
2019-05-01T06:14:43.624Z,21.42
2019-05-01T06:15:44.320Z,21.35
2019-05-01T06:16:46.869Z,21.42
2019-05-01T06:17:44.291Z,21.32
2019-05-01T06:18:43.385Z,21.39
2019-05-01T06:19:45.927Z,21.35
2019-05-01T06:20:44.509Z,21.42
2019-05-01T06:21:43.322Z,21.39
2019-05-01T06:22:45.133Z,21.32
2019-05-01T06:23:43.330Z,21.36
2019-05-01T06:24:43.886Z,21.39
2019-05-01T06:25:43.321Z,21.35
2019-05-01T06:26:43.897Z,21.40
2019-05-01T06:27:44.850Z,21.33
2019-05-01T06:28:45.868Z,21.39
2019-05-01T06:29:44.407Z,21.29
2019-05-01T06:30:47.235Z,21.30
2019-05-01T06:31:44.661Z,21.35
2019-05-01T06:32:44.098Z,21.32
2019-05-01T06:33:44.384Z,21.32
2019-05-01T06:34:43.171Z,21.36
2019-05-01T06:35:43.839Z,21.35
2019-05-01T06:36:49.267Z,21.42
2019-05-01T06:37:44.870Z,21.39
2019-05-01T06:38:43.165Z,21.39
2019-05-01T06:39:48.129Z,21.39
2019-05-01T06:40:44.223Z,21.37
2019-05-01T06:41:43.182Z,21.36
2019-05-01T06:42:45.732Z,21.35
2019-05-01T06:43:43.900Z,21.30
2019-05-01T06:44:44.290Z,21.37
2019-05-01T06:45:46.943Z,21.30
2019-05-01T06:46:44.050Z,21.35
2019-05-01T06:47:44.206Z,21.42
2019-05-01T06:48:43.029Z,21.37
2019-05-01T06:49:44.016Z,21.36
2019-05-01T06:50:43.620Z,21.32
2019-05-01T06:51:43.031Z,21.36
2019-05-01T06:52:43.038Z,21.42
2019-05-01T06:53:43.370Z,21.33
2019-05-01T06:54:43.653Z,21.32
2019-05-01T06:55:44.038Z,21.36
2019-05-01T06:56:43.094Z,21.32
2019-05-01T06:57:43.686Z,21.36
2019-05-01T06:58:43.216Z,21.39
2019-05-01T06:59:42.911Z,21.33
2019-05-01T07:00:44.234Z,21.29
2019-05-01T07:01:43.787Z,21.42
2019-05-01T07:02:42.911Z,21.33
2019-05-01T07:03:46.942Z,21.37
2019-05-01T07:04:43.919Z,21.37
2019-05-01T07:05:44.624Z,21.36
2019-05-01T07:06:43.279Z,21.40
2019-05-01T07:07:43.472Z,21.32
2019-05-01T07:08:43.196Z,21.37
2019-05-01T07:09:44.126Z,21.40
2019-05-01T07:10:45.747Z,21.37
2019-05-01T07:11:47.378Z,21.39
2019-05-01T07:12:44.033Z,21.36
2019-05-01T07:13:43.311Z,21.30
2019-05-01T07:14:47.216Z,21.30
2019-05-01T07:15:43.757Z,21.42
2019-05-01T07:16:42.915Z,21.36
2019-05-01T07:17:43.933Z,21.37
2019-05-01T07:18:43.595Z,21.39
2019-05-01T07:19:43.450Z,21.30
2019-05-01T07:20:47.275Z,21.35
2019-05-01T07:21:43.551Z,21.40
2019-05-01T07:22:44.059Z,21.42
2019-05-01T07:23:42.692Z,21.30
2019-05-01T07:24:43.886Z,21.35
2019-05-01T07:25:43.376Z,21.37
2019-05-01T07:26:43.911Z,21.42
2019-05-01T07:27:43.610Z,21.39
2019-05-01T07:28:42.578Z,21.33
2019-05-01T07:29:44.888Z,21.39
2019-05-01T07:30:43.469Z,21.36
2019-05-01T07:31:42.552Z,21.36
2019-05-01T07:32:42.872Z,21.36
2019-05-01T07:33:42.525Z,21.36
2019-05-01T07:34:42.543Z,21.32
2019-05-01T07:35:42.470Z,21.39
2019-05-01T07:36:45.561Z,21.42
2019-05-01T07:37:43.525Z,21.36
2019-05-01T07:38:42.517Z,21.36
2019-05-01T07:39:44.916Z,21.30
2019-05-01T07:40:43.389Z,21.39
2019-05-01T07:41:42.313Z,21.37
2019-05-01T07:42:43.720Z,21.39
2019-05-01T07:43:43.321Z,21.43
2019-05-01T07:44:42.920Z,21.36
2019-05-01T07:45:43.644Z,21.30
2019-05-01T07:46:42.411Z,21.32
2019-05-01T07:47:42.955Z,21.36
2019-05-01T07:48:43.840Z,21.33
2019-05-01T07:49:42.685Z,21.33
2019-05-01T07:50:42.394Z,21.40
2019-05-01T07:51:43.479Z,21.40
2019-05-01T07:52:42.315Z,21.35
2019-05-01T07:53:42.323Z,21.32
2019-05-01T07:54:43.570Z,21.29
2019-05-01T07:55:42.236Z,21.29
2019-05-01T07:56:44.889Z,21.39
2019-05-01T07:57:44.527Z,21.30
2019-05-01T07:58:42.220Z,21.40
2019-05-01T07:59:42.251Z,21.37
2019-05-01T08:00:42.767Z,21.36
2019-05-01T08:01:42.627Z,21.32
2019-05-01T08:02:42.260Z,21.30
2019-05-01T08:03:42.655Z,21.42
2019-05-01T08:04:42.194Z,21.36
2019-05-01T08:05:45.468Z,21.42
2019-05-01T08:06:42.128Z,21.36
2019-05-01T08:07:42.090Z,21.42
2019-05-01T08:08:42.182Z,21.42
2019-05-01T08:09:45.823Z,21.33
2019-05-01T08:10:43.138Z,21.35
2019-05-01T08:11:44.006Z,21.45
2019-05-01T08:12:45.039Z,21.33
2019-05-01T08:13:42.975Z,21.37
2019-05-01T08:14:42.107Z,21.36
2019-05-01T08:15:42.772Z,21.32
2019-05-01T08:16:42.559Z,21.33
2019-05-01T08:17:42.060Z,21.30
2019-05-01T08:18:42.655Z,21.30
2019-05-01T08:19:42.094Z,21.32
2019-05-01T08:20:45.802Z,21.36
2019-05-01T08:21:42.220Z,21.32
2019-05-01T08:22:41.952Z,21.35
2019-05-01T08:23:42.809Z,21.39
2019-05-01T08:24:43.161Z,21.39
2019-05-01T08:25:42.558Z,21.45
2019-05-01T08:26:44.183Z,21.33
2019-05-01T08:27:42.232Z,21.36
2019-05-01T08:28:42.007Z,21.42
2019-05-01T08:29:43.792Z,21.39
2019-05-01T08:30:43.169Z,21.37
2019-05-01T08:31:43.178Z,21.35
2019-05-01T08:32:41.969Z,21.35
2019-05-01T08:33:44.794Z,21.33
2019-05-01T08:34:49.153Z,21.36
2019-05-01T08:35:42.930Z,21.30
2019-05-01T08:36:46.771Z,21.42
2019-05-01T08:37:43.919Z,21.37
2019-05-01T08:38:42.923Z,21.39
2019-05-01T08:39:44.314Z,21.33
2019-05-01T08:40:41.738Z,21.32
2019-05-01T08:41:42.413Z,21.37
2019-05-01T08:42:42.500Z,21.35
2019-05-01T08:43:41.793Z,21.33
2019-05-01T08:44:41.979Z,21.32
2019-05-01T08:45:42.551Z,21.36
2019-05-01T08:46:41.709Z,21.39
2019-05-01T08:47:42.202Z,21.39
2019-05-01T08:48:42.130Z,21.35
2019-05-01T08:49:49.169Z,21.35
2019-05-01T08:50:42.692Z,21.35
2019-05-01T08:51:41.649Z,21.35
2019-05-01T08:52:46.950Z,21.35
2019-05-01T08:53:41.843Z,21.36
2019-05-01T08:54:41.664Z,21.36
2019-05-01T08:55:45.199Z,21.39
2019-05-01T08:56:43.711Z,21.36
2019-05-01T08:57:41.618Z,21.32
2019-05-01T08:58:44.815Z,21.35
2019-05-01T08:59:42.758Z,21.35
2019-05-01T09:00:41.598Z,21.36
2019-05-01T09:01:45.721Z,21.30
2019-05-01T09:02:43.461Z,21.30
2019-05-01T09:03:42.499Z,21.37
2019-05-01T09:04:41.537Z,21.32
2019-05-01T09:05:42.902Z,21.42
2019-05-01T09:06:43.867Z,21.40
2019-05-01T09:07:41.448Z,21.36
2019-05-01T09:08:42.214Z,21.36
2019-05-01T09:09:45.289Z,21.40
2019-05-01T09:10:42.486Z,21.36
2019-05-01T09:11:41.609Z,21.33
2019-05-01T09:12:42.572Z,21.43
2019-05-01T09:13:43.209Z,21.33
2019-05-01T09:14:41.470Z,21.32
2019-05-01T09:15:43.784Z,21.35
2019-05-01T09:16:43.255Z,21.36
2019-05-01T09:17:41.407Z,21.33
2019-05-01T09:18:41.406Z,21.33
2019-05-01T09:19:41.708Z,21.39
2019-05-01T09:20:41.660Z,21.30
2019-05-01T09:21:41.815Z,21.42
2019-05-01T09:22:41.534Z,21.35
2019-05-01T09:23:46.086Z,21.33
2019-05-01T09:24:42.331Z,21.35
2019-05-01T09:25:41.322Z,21.32
2019-05-01T09:26:45.249Z,21.33
2019-05-01T09:27:42.656Z,21.35
2019-05-01T09:28:41.503Z,21.36
2019-05-01T09:29:41.290Z,21.32
2019-05-01T09:30:41.195Z,21.30
2019-05-01T09:31:41.255Z,21.32
2019-05-01T09:32:41.206Z,21.32
2019-05-01T09:33:42.184Z,21.32
2019-05-01T09:34:41.165Z,21.30
2019-05-01T09:35:45.231Z,21.40
2019-05-01T09:36:42.355Z,21.36
2019-05-01T09:37:41.192Z,21.37
2019-05-01T09:38:41.147Z,21.36
2019-05-01T09:39:41.630Z,21.35
2019-05-01T09:40:41.092Z,21.36
2019-05-01T09:41:43.039Z,21.35
2019-05-01T09:42:42.475Z,21.37
2019-05-01T09:43:41.708Z,21.35
2019-05-01T09:44:41.082Z,21.30
2019-05-01T09:45:41.278Z,21.36
2019-05-01T09:46:41.800Z,21.35
2019-05-01T09:47:41.061Z,21.33
2019-05-01T09:48:41.662Z,21.37
2019-05-01T09:49:41.061Z,21.36
2019-05-01T09:50:40.995Z,21.36
2019-05-01T09:51:42.456Z,21.32
2019-05-01T09:52:42.009Z,21.42
2019-05-01T09:53:42.012Z,21.36
2019-05-01T09:54:42.869Z,21.35
2019-05-01T09:55:41.979Z,21.39
2019-05-01T09:56:41.162Z,21.39
2019-05-01T09:57:42.827Z,21.36
2019-05-01T09:58:41.078Z,21.35
2019-05-01T09:59:41.717Z,21.39
2019-05-01T10:00:42.021Z,21.35
2019-05-01T10:01:40.854Z,21.35
2019-05-01T10:02:42.113Z,21.39
2019-05-01T10:03:41.135Z,21.35
2019-05-01T10:04:41.070Z,21.33
2019-05-01T10:05:42.923Z,21.33
2019-05-01T10:06:42.556Z,21.42
2019-05-01T10:07:40.858Z,21.37
2019-05-01T10:08:41.888Z,21.35
2019-05-01T10:09:41.342Z,21.39
2019-05-01T10:10:40.825Z,21.30
2019-05-01T10:11:42.016Z,21.37
2019-05-01T10:12:41.791Z,21.37
2019-05-01T10:13:41.757Z,21.42
2019-05-01T10:14:40.795Z,21.39
2019-05-01T10:15:41.419Z,21.40
2019-05-01T10:16:40.746Z,21.35
2019-05-01T10:17:40.758Z,21.39
2019-05-01T10:18:41.091Z,21.37
2019-05-01T10:19:40.637Z,21.37
2019-05-01T10:20:40.643Z,21.39
2019-05-01T10:21:41.817Z,21.39
2019-05-01T10:22:41.565Z,21.35
2019-05-01T10:23:40.623Z,21.35
2019-05-01T10:24:40.636Z,21.35
2019-05-01T10:25:42.960Z,21.35
2019-05-01T10:26:43.184Z,21.33
2019-05-01T10:27:40.847Z,21.36
2019-05-01T10:28:40.629Z,21.42
2019-05-01T10:29:40.720Z,21.33
2019-05-01T10:30:40.578Z,21.37
2019-05-01T10:31:42.973Z,21.39
2019-05-01T10:32:41.769Z,21.37
2019-05-01T10:33:40.612Z,21.43
2019-05-01T10:34:43.006Z,21.36
2019-05-01T10:35:42.800Z,21.48
2019-05-01T10:36:40.570Z,21.39
2019-05-01T10:37:41.294Z,21.37
2019-05-01T10:38:45.151Z,21.39
2019-05-01T10:39:41.364Z,21.40
2019-05-01T10:40:40.512Z,21.45
2019-05-01T10:41:41.327Z,21.36
2019-05-01T10:42:41.416Z,21.39
2019-05-01T10:43:40.310Z,21.42
2019-05-01T10:44:41.105Z,21.35
2019-05-01T10:45:40.407Z,21.36
2019-05-01T10:46:41.326Z,21.39
2019-05-01T10:47:41.291Z,21.35
2019-05-01T10:48:41.130Z,21.37
2019-05-01T10:49:40.287Z,21.42
2019-05-01T10:50:41.221Z,21.42
2019-05-01T10:51:40.937Z,21.36
2019-05-01T10:52:40.357Z,21.36
2019-05-01T10:53:43.161Z,21.39
2019-05-01T10:54:40.364Z,21.36
2019-05-01T10:55:40.307Z,21.45
2019-05-01T10:56:41.041Z,21.35
2019-05-01T10:57:42.103Z,21.42
2019-05-01T10:58:40.228Z,21.30
2019-05-01T10:59:40.318Z,21.43
2019-05-01T11:00:40.291Z,21.36
2019-05-01T11:01:40.309Z,21.36
2019-05-01T11:02:40.390Z,21.45
2019-05-01T11:03:42.645Z,21.35
2019-05-01T11:04:40.616Z,21.37
2019-05-01T11:05:40.281Z,21.42
2019-05-01T11:06:40.252Z,21.35
2019-05-01T11:07:40.241Z,21.35
2019-05-01T11:08:40.433Z,21.36
2019-05-01T11:09:40.118Z,21.42
2019-05-01T11:10:40.168Z,21.40
2019-05-01T11:11:40.180Z,21.40
2019-05-01T11:12:40.216Z,21.37
2019-05-01T11:13:41.048Z,21.37
2019-05-01T11:14:41.028Z,21.36
2019-05-01T11:15:39.995Z,21.39
2019-05-01T11:16:40.043Z,21.37
2019-05-01T11:17:40.033Z,21.39
2019-05-01T11:18:40.051Z,21.42
2019-05-01T11:19:39.998Z,21.36
2019-05-01T11:20:40.941Z,21.42
2019-05-01T11:21:40.039Z,21.37
2019-05-01T11:22:40.050Z,21.45
2019-05-01T11:23:40.007Z,21.42
2019-05-01T11:24:40.002Z,21.37
2019-05-01T11:25:39.963Z,21.45
2019-05-01T11:26:40.738Z,21.30
2019-05-01T11:27:40.289Z,21.48
2019-05-01T11:28:41.200Z,21.42
2019-05-01T11:29:40.525Z,21.36
2019-05-01T11:30:39.921Z,21.48
2019-05-01T11:31:40.492Z,21.35
2019-05-01T11:32:41.499Z,21.36
2019-05-01T11:33:39.957Z,21.48
2019-05-01T11:34:39.910Z,21.35
2019-05-01T11:35:39.826Z,21.36
2019-05-01T11:36:39.866Z,21.45
2019-05-01T11:37:39.906Z,21.40
2019-05-01T11:38:40.064Z,21.36
2019-05-01T11:39:41.201Z,21.30
2019-05-01T11:40:39.796Z,21.42
2019-05-01T11:41:39.811Z,21.36
2019-05-01T11:42:40.367Z,21.42
2019-05-01T11:43:39.783Z,21.43
2019-05-01T11:44:40.250Z,21.39
2019-05-01T11:45:40.006Z,21.42
2019-05-01T11:46:40.898Z,21.42
2019-05-01T11:47:39.723Z,21.46
2019-05-01T11:48:39.796Z,21.37
2019-05-01T11:49:39.701Z,21.43
2019-05-01T11:50:40.705Z,21.42
2019-05-01T11:51:40.005Z,21.35
2019-05-01T11:52:39.695Z,21.46
2019-05-01T11:53:39.974Z,21.43
2019-05-01T11:54:39.665Z,21.36
2019-05-01T11:55:39.623Z,21.45
2019-05-01T11:56:39.868Z,21.37
2019-05-01T11:57:39.608Z,21.40
2019-05-01T11:58:39.902Z,21.46
2019-05-01T11:59:39.653Z,21.39
2019-05-01T12:00:40.442Z,21.37
2019-05-01T12:01:40.438Z,21.40
2019-05-01T12:02:40.864Z,21.43
2019-05-01T12:03:39.592Z,21.48
2019-05-01T12:04:40.103Z,21.39
2019-05-01T12:05:39.516Z,21.48
2019-05-01T12:06:39.439Z,21.42
2019-05-01T12:07:39.911Z,21.35
2019-05-01T12:08:40.486Z,21.36
2019-05-01T12:09:39.507Z,21.40
2019-05-01T12:10:39.939Z,21.46
2019-05-01T12:11:40.011Z,21.36
2019-05-01T12:12:39.356Z,21.37
2019-05-01T12:13:44.059Z,21.40
2019-05-01T12:14:41.288Z,21.48
2019-05-01T12:15:39.474Z,21.40
2019-05-01T12:16:39.931Z,21.42
2019-05-01T12:17:39.406Z,21.37
2019-05-01T12:18:40.150Z,21.37
2019-05-01T12:19:39.460Z,21.37
2019-05-01T12:20:39.983Z,21.42
2019-05-01T12:21:39.387Z,21.42
2019-05-01T12:22:39.358Z,21.43
2019-05-01T12:23:39.319Z,21.43
2019-05-01T12:24:39.361Z,21.46
2019-05-01T12:25:39.296Z,21.45
2019-05-01T12:26:39.739Z,21.48
2019-05-01T12:27:39.313Z,21.42
2019-05-01T12:28:39.233Z,21.37
2019-05-01T12:29:39.265Z,21.36
2019-05-01T12:30:39.263Z,21.37
2019-05-01T12:31:40.214Z,21.46
2019-05-01T12:32:40.102Z,21.40
2019-05-01T12:33:39.154Z,21.46
2019-05-01T12:34:39.179Z,21.48
2019-05-01T12:35:40.163Z,21.48
2019-05-01T12:36:39.941Z,21.42
2019-05-01T12:37:39.208Z,21.48
2019-05-01T12:38:39.363Z,21.35
2019-05-01T12:39:39.135Z,21.48
2019-05-01T12:40:39.217Z,21.45
2019-05-01T12:41:39.102Z,21.45
2019-05-01T12:42:39.138Z,21.40
2019-05-01T12:43:39.796Z,21.43
2019-05-01T12:44:39.292Z,21.46
2019-05-01T12:45:40.700Z,21.43
2019-05-01T12:46:39.339Z,21.43
2019-05-01T12:47:39.377Z,21.37
2019-05-01T12:48:39.058Z,21.43
2019-05-01T12:49:39.697Z,21.43
2019-05-01T12:50:39.298Z,21.46
2019-05-01T12:51:39.538Z,21.46
2019-05-01T12:52:39.029Z,21.43